createdAt,value
2017-11-07T00:00:03.524Z,9.66
2017-11-07T00:00:44.101Z,9.79
2017-11-07T00:01:24.589Z,9.68
2017-11-07T00:02:05.134Z,9.68
2017-11-07T00:02:45.687Z,9.72
2017-11-07T00:03:26.216Z,9.72
2017-11-07T00:04:06.755Z,9.68
2017-11-07T00:04:47.307Z,9.78
2017-11-07T00:05:27.878Z,9.83
2017-11-07T00:06:08.421Z,9.71
2017-11-07T00:06:48.986Z,9.74
2017-11-07T00:07:29.563Z,9.72
2017-11-07T00:08:10.100Z,9.71
2017-11-07T00:08:50.639Z,9.6
2017-11-07T00:09:31.185Z,9.6
2017-11-07T00:10:11.702Z,9.54
2017-11-07T00:10:52.241Z,9.48
2017-11-07T00:11:32.822Z,9.48
2017-11-07T00:12:13.364Z,9.5
2017-11-07T00:12:53.885Z,9.5
2017-11-07T00:13:34.409Z,9.64
2017-11-07T00:14:14.939Z,9.58
2017-11-07T00:14:55.496Z,9.65
2017-11-07T00:15:36.061Z,9.57
2017-11-07T00:16:16.602Z,9.58
2017-11-07T00:16:57.152Z,9.57
2017-11-07T00:17:37.710Z,9.64
2017-11-07T00:18:18.269Z,9.65
2017-11-07T00:18:58.800Z,9.74
2017-11-07T00:19:39.363Z,9.5
2017-11-07T00:20:19.903Z,9.6
2017-11-07T00:21:00.465Z,9.66
2017-11-07T00:21:41.020Z,9.47
2017-11-07T00:22:21.564Z,9.61
2017-11-07T00:23:02.134Z,9.69
2017-11-07T00:23:42.695Z,9.76
2017-11-07T00:24:23.267Z,9.54
2017-11-07T00:25:03.802Z,9.71
2017-11-07T00:25:44.326Z,9.68
2017-11-07T00:26:24.862Z,9.71
2017-11-07T00:27:05.402Z,9.74
2017-11-07T00:27:45.973Z,9.76
2017-11-07T00:28:26.496Z,9.69
2017-11-07T00:29:07.063Z,9.72
2017-11-07T00:29:47.599Z,9.69
2017-11-07T00:30:28.145Z,9.71
2017-11-07T00:31:08.724Z,9.6
2017-11-07T00:31:49.259Z,9.58
2017-11-07T00:32:29.821Z,9.61
2017-11-07T00:33:10.360Z,9.58
2017-11-07T00:33:50.908Z,9.6
2017-11-07T00:34:31.453Z,9.58
2017-11-07T00:35:11.999Z,9.71
2017-11-07T00:35:52.558Z,9.66
2017-11-07T00:36:33.102Z,9.65
2017-11-07T00:37:13.665Z,9.61
2017-11-07T00:37:54.226Z,9.65
2017-11-07T00:38:34.788Z,9.69
2017-11-07T00:39:15.335Z,9.76
2017-11-07T00:39:55.885Z,9.71
2017-11-07T00:40:36.457Z,9.75
2017-11-07T00:41:17.003Z,9.72
2017-11-07T00:41:57.553Z,9.71
2017-11-07T00:42:38.127Z,9.71
2017-11-07T00:43:18.693Z,9.79
2017-11-07T00:43:59.243Z,9.81
2017-11-07T00:44:39.783Z,9.71
2017-11-07T00:45:20.313Z,9.64
2017-11-07T00:46:00.878Z,9.75
2017-11-07T00:46:41.500Z,9.66
2017-11-07T00:47:22.135Z,9.6
2017-11-07T00:48:02.688Z,9.56
2017-11-07T00:48:43.244Z,9.4
2017-11-07T00:49:23.815Z,9.54
2017-11-07T00:50:04.353Z,9.54
2017-11-07T00:50:44.906Z,9.51
2017-11-07T00:51:25.464Z,9.57
2017-11-07T00:52:06.024Z,9.5
2017-11-07T00:52:46.606Z,9.42
2017-11-07T00:53:27.206Z,9.5
2017-11-07T00:54:07.755Z,9.5
2017-11-07T00:54:48.296Z,9.56
2017-11-07T00:55:28.858Z,9.47
2017-11-07T00:56:09.380Z,9.51
2017-11-07T00:56:49.934Z,9.54
2017-11-07T00:57:30.527Z,9.58
2017-11-07T00:58:11.093Z,9.58
2017-11-07T00:58:51.646Z,9.65
2017-11-07T00:59:32.181Z,9.66
2017-11-07T01:00:12.728Z,9.64
2017-11-07T01:00:53.265Z,9.54
2017-11-07T01:01:33.829Z,9.66
2017-11-07T01:02:14.381Z,9.64
2017-11-07T01:02:54.944Z,9.71
2017-11-07T01:03:35.474Z,9.68
2017-11-07T01:04:15.994Z,9.69
2017-11-07T01:04:56.534Z,9.64
2017-11-07T01:05:37.094Z,9.53
2017-11-07T01:06:17.633Z,9.5
2017-11-07T01:06:58.192Z,9.53
2017-11-07T01:07:38.740Z,9.53
2017-11-07T01:08:19.259Z,9.54
2017-11-07T01:08:59.792Z,9.58
2017-11-07T01:09:40.332Z,9.58
2017-11-07T01:10:20.893Z,9.57
2017-11-07T01:11:01.557Z,9.65
2017-11-07T01:11:42.105Z,9.57
2017-11-07T01:12:22.657Z,9.47
2017-11-07T01:13:03.213Z,9.5
2017-11-07T01:13:43.763Z,9.39
2017-11-07T01:14:24.320Z,9.38
2017-11-07T01:15:04.866Z,9.35
2017-11-07T01:15:45.396Z,9.32
2017-11-07T01:16:25.922Z,9.35
2017-11-07T01:17:06.511Z,9.32
2017-11-07T01:17:47.061Z,9.28
2017-11-07T01:18:27.592Z,9.28
2017-11-07T01:19:08.153Z,9.38
2017-11-07T01:19:48.727Z,9.26
2017-11-07T01:20:29.293Z,9.28
2017-11-07T01:21:09.850Z,9.28
2017-11-07T01:21:50.371Z,9.24
2017-11-07T01:22:30.917Z,9.24
2017-11-07T01:23:11.461Z,9.33
2017-11-07T01:23:52.018Z,9.23
2017-11-07T01:24:32.556Z,9.35
2017-11-07T01:25:13.096Z,9.4
2017-11-07T01:25:53.652Z,9.33
2017-11-07T01:26:34.194Z,9.35
2017-11-07T01:27:14.754Z,9.43
2017-11-07T01:27:55.307Z,9.26
2017-11-07T01:28:35.872Z,9.11
2017-11-07T01:29:16.376Z,9.29
2017-11-07T01:29:56.892Z,9.11
2017-11-07T01:30:37.441Z,9.13
2017-11-07T01:31:17.986Z,9.08
2017-11-07T01:31:58.548Z,8.99
2017-11-07T01:32:39.107Z,9.04
2017-11-07T01:33:19.677Z,9.08
2017-11-07T01:34:00.247Z,8.98
2017-11-07T01:34:40.807Z,8.96
2017-11-07T01:35:21.377Z,9.14
2017-11-07T01:36:01.903Z,9.11
2017-11-07T01:36:42.497Z,8.98
2017-11-07T01:37:23.039Z,9.13
2017-11-07T01:38:03.624Z,9.11
2017-11-07T01:38:44.190Z,9.1
2017-11-07T01:39:24.736Z,9.11
2017-11-07T01:40:05.316Z,9.14
2017-11-07T01:40:45.833Z,9.11
2017-11-07T01:41:26.384Z,9.08
2017-11-07T01:42:06.947Z,9.15
2017-11-07T01:42:47.597Z,9.08
2017-11-07T01:43:28.137Z,9.08
2017-11-07T01:44:08.833Z,9.08
2017-11-07T01:44:49.459Z,9.13
2017-11-07T01:45:29.928Z,9.1
2017-11-07T01:46:10.438Z,8.95
2017-11-07T01:46:51.022Z,8.99
2017-11-07T01:47:31.563Z,9.15
2017-11-07T01:48:12.115Z,9.2
2017-11-07T01:48:52.662Z,9.28
2017-11-07T01:49:33.219Z,9.15
2017-11-07T01:50:13.872Z,9.21
2017-11-07T01:50:54.416Z,9.35
2017-11-07T01:51:34.972Z,9.26
2017-11-07T01:52:15.558Z,9.28
2017-11-07T01:52:56.109Z,9.29
2017-11-07T01:53:36.648Z,9.36
2017-11-07T01:54:17.216Z,9.5
2017-11-07T01:54:57.753Z,9.39
2017-11-07T01:55:38.297Z,9.29
2017-11-07T01:56:18.832Z,9.15
2017-11-07T01:56:59.377Z,9.18
2017-11-07T01:57:39.953Z,9.18
2017-11-07T01:58:20.535Z,9.15
2017-11-07T01:59:01.061Z,9.32
2017-11-07T01:59:41.607Z,9.36
2017-11-07T02:00:22.168Z,9.28
2017-11-07T02:01:02.729Z,9.26
2017-11-07T02:01:43.281Z,9.32
2017-11-07T02:02:23.830Z,9.33
2017-11-07T02:03:04.383Z,9.38
2017-11-07T02:03:44.918Z,9.36
2017-11-07T02:04:25.482Z,9.47
2017-11-07T02:05:06.023Z,9.36
2017-11-07T02:05:46.603Z,9.29
2017-11-07T02:06:27.144Z,9.38
2017-11-07T02:07:07.814Z,9.42
2017-11-07T02:07:48.432Z,9.54
2017-11-07T02:08:29.274Z,9.6
2017-11-07T02:09:09.832Z,9.5
2017-11-07T02:09:50.383Z,9.51
2017-11-07T02:10:30.936Z,9.43
2017-11-07T02:11:11.475Z,9.5
2017-11-07T02:11:52.026Z,9.5
2017-11-07T02:12:32.583Z,9.51
2017-11-07T02:13:13.143Z,9.53
2017-11-07T02:13:53.703Z,9.57
2017-11-07T02:14:34.245Z,9.39
2017-11-07T02:15:14.788Z,9.33
2017-11-07T02:15:55.341Z,9.39
2017-11-07T02:16:35.871Z,9.5
2017-11-07T02:17:16.406Z,9.39
2017-11-07T02:17:56.968Z,9.46
2017-11-07T02:18:37.515Z,9.53
2017-11-07T02:19:18.103Z,9.5
2017-11-07T02:19:58.651Z,9.53
2017-11-07T02:20:39.227Z,9.58
2017-11-07T02:21:19.758Z,9.54
2017-11-07T02:22:00.304Z,9.5
2017-11-07T02:22:40.850Z,9.38
2017-11-07T02:23:21.416Z,9.29
2017-11-07T02:24:01.962Z,9.28
2017-11-07T02:24:42.518Z,9.17
2017-11-07T02:25:23.040Z,9.23
2017-11-07T02:26:03.608Z,9.08
2017-11-07T02:26:44.153Z,9.14
2017-11-07T02:27:24.686Z,9.08
2017-11-07T02:28:05.412Z,9.14
2017-11-07T02:28:45.964Z,9.24
2017-11-07T02:29:26.476Z,9.23
2017-11-07T02:30:07.023Z,9.17
2017-11-07T02:30:47.588Z,9.13
2017-11-07T02:31:28.122Z,9.18
2017-11-07T02:32:08.659Z,8.96
2017-11-07T02:32:49.226Z,9.1
2017-11-07T02:33:29.782Z,9.14
2017-11-07T02:34:10.316Z,9.15
2017-11-07T02:34:50.862Z,9.11
2017-11-07T02:35:31.422Z,9.17
2017-11-07T02:36:12.011Z,9.14
2017-11-07T02:36:52.546Z,9.1
2017-11-07T02:37:33.095Z,9.18
2017-11-07T02:38:13.653Z,9.14
2017-11-07T02:38:54.191Z,9.08
2017-11-07T02:39:34.754Z,9.17
2017-11-07T02:40:15.313Z,9.13
2017-11-07T02:40:55.861Z,9.23
2017-11-07T02:41:36.409Z,9.28
2017-11-07T02:42:16.964Z,9.33
2017-11-07T02:42:57.502Z,9.28
2017-11-07T02:43:38.072Z,9.17
2017-11-07T02:44:18.588Z,9.13
2017-11-07T02:44:59.112Z,9.11
2017-11-07T02:45:39.676Z,9.23
2017-11-07T02:46:20.237Z,9.24
2017-11-07T02:47:00.781Z,9.28
2017-11-07T02:47:41.346Z,9.38
2017-11-07T02:48:21.912Z,9.33
2017-11-07T02:49:02.469Z,9.26
2017-11-07T02:49:43.015Z,9.31
2017-11-07T02:50:23.584Z,9.36
2017-11-07T02:51:04.137Z,9.39
2017-11-07T02:51:44.666Z,9.38
2017-11-07T02:52:25.227Z,9.39
2017-11-07T02:53:05.978Z,9.28
2017-11-07T02:53:46.559Z,9.05
2017-11-07T02:54:27.126Z,9.04
2017-11-07T02:55:07.763Z,9.08
2017-11-07T02:55:48.301Z,9.21
2017-11-07T02:56:28.900Z,9.28
2017-11-07T02:57:09.426Z,9.29
2017-11-07T02:57:49.982Z,9.26
2017-11-07T02:58:30.521Z,9.36
2017-11-07T02:59:11.088Z,9.26
2017-11-07T02:59:51.671Z,9.26
2017-11-07T03:00:32.225Z,9.32
2017-11-07T03:01:12.950Z,9.4
2017-11-07T03:01:53.503Z,9.46
2017-11-07T03:02:34.073Z,9.39
2017-11-07T03:03:14.619Z,9.5
2017-11-07T03:03:55.178Z,9.47
2017-11-07T03:04:35.730Z,9.53
2017-11-07T03:05:16.256Z,9.56
2017-11-07T03:05:56.821Z,9.57
2017-11-07T03:06:37.376Z,9.58
2017-11-07T03:07:17.933Z,9.6
2017-11-07T03:07:58.483Z,9.58
2017-11-07T03:08:39.020Z,9.56
2017-11-07T03:09:19.572Z,9.65
2017-11-07T03:10:00.137Z,9.6
2017-11-07T03:10:40.701Z,9.61
2017-11-07T03:11:21.257Z,9.61
2017-11-07T03:12:01.842Z,9.58
2017-11-07T03:12:42.424Z,9.5
2017-11-07T03:13:22.993Z,9.54
2017-11-07T03:14:03.541Z,9.51
2017-11-07T03:14:44.090Z,9.54
2017-11-07T03:15:24.652Z,9.5
2017-11-07T03:16:05.201Z,9.51
2017-11-07T03:16:45.767Z,9.46
2017-11-07T03:17:26.307Z,9.42
2017-11-07T03:18:06.864Z,9.5
2017-11-07T03:18:47.402Z,9.54
2017-11-07T03:19:27.952Z,9.5
2017-11-07T03:20:08.525Z,9.58
2017-11-07T03:20:49.091Z,9.56
2017-11-07T03:21:29.656Z,9.51
2017-11-07T03:22:10.210Z,9.58
2017-11-07T03:22:50.765Z,9.51
2017-11-07T03:23:31.321Z,9.54
2017-11-07T03:24:11.854Z,9.54
2017-11-07T03:24:52.420Z,9.54
2017-11-07T03:25:32.973Z,9.58
2017-11-07T03:26:13.510Z,9.6
2017-11-07T03:26:54.077Z,9.57
2017-11-07T03:27:34.624Z,9.53
2017-11-07T03:28:15.192Z,9.53
2017-11-07T03:28:55.750Z,9.58
2017-11-07T03:29:36.299Z,9.46
2017-11-07T03:30:16.860Z,9.53
2017-11-07T03:30:57.433Z,9.5
2017-11-07T03:31:37.973Z,9.35
2017-11-07T03:32:18.541Z,9.38
2017-11-07T03:32:59.101Z,9.36
2017-11-07T03:33:39.628Z,9.23
2017-11-07T03:34:20.179Z,9.24
2017-11-07T03:35:00.719Z,9.28
2017-11-07T03:35:41.256Z,9.28
2017-11-07T03:36:21.842Z,9.24
2017-11-07T03:37:02.384Z,9.42
2017-11-07T03:37:42.915Z,9.39
2017-11-07T03:38:23.468Z,9.28
2017-11-07T03:39:04.016Z,9.26
2017-11-07T03:39:44.559Z,9.38
2017-11-07T03:40:25.111Z,9.39
2017-11-07T03:41:05.677Z,9.38
2017-11-07T03:41:46.258Z,9.36
2017-11-07T03:42:26.787Z,9.43
2017-11-07T03:43:07.349Z,9.42
2017-11-07T03:43:47.907Z,9.28
2017-11-07T03:44:28.472Z,9.29
2017-11-07T03:45:09.017Z,9.26
2017-11-07T03:45:49.572Z,9.21
2017-11-07T03:46:30.120Z,9.31
2017-11-07T03:47:10.694Z,9.28
2017-11-07T03:47:51.255Z,9.23
2017-11-07T03:48:31.794Z,9.29
2017-11-07T03:49:12.355Z,9.36
2017-11-07T03:49:52.923Z,9.38
2017-11-07T03:50:33.475Z,9.43
2017-11-07T03:51:14.039Z,9.35
2017-11-07T03:51:54.603Z,9.4
2017-11-07T03:52:35.171Z,9.35
2017-11-07T03:53:15.721Z,9.38
2017-11-07T03:53:56.279Z,9.32
2017-11-07T03:54:36.824Z,9.4
2017-11-07T03:55:17.372Z,9.42
2017-11-07T03:55:57.940Z,9.36
2017-11-07T03:56:38.480Z,9.47
2017-11-07T03:57:19.017Z,9.38
2017-11-07T03:57:59.563Z,9.5
2017-11-07T03:58:40.121Z,9.48
2017-11-07T03:59:20.668Z,9.51
2017-11-07T04:00:01.209Z,9.57
2017-11-07T04:00:41.764Z,9.54
2017-11-07T04:01:22.307Z,9.39
2017-11-07T04:02:02.873Z,9.36
2017-11-07T04:02:43.424Z,9.43
2017-11-07T04:03:23.983Z,9.36
2017-11-07T04:04:04.519Z,9.36
2017-11-07T04:04:45.083Z,9.53
2017-11-07T04:05:25.641Z,9.4
2017-11-07T04:06:06.206Z,9.35
2017-11-07T04:06:46.737Z,9.38
2017-11-07T04:07:27.285Z,9.43
2017-11-07T04:08:07.834Z,9.28
2017-11-07T04:08:48.375Z,9.36
2017-11-07T04:09:28.931Z,9.39
2017-11-07T04:10:09.478Z,9.39
2017-11-07T04:10:50.042Z,9.35
2017-11-07T04:11:30.579Z,9.39
2017-11-07T04:12:11.126Z,9.38
2017-11-07T04:12:51.670Z,9.4
2017-11-07T04:13:32.206Z,9.33
2017-11-07T04:14:12.778Z,9.35
2017-11-07T04:14:53.317Z,9.32
2017-11-07T04:15:33.875Z,9.38
2017-11-07T04:16:14.445Z,9.1
2017-11-07T04:16:54.996Z,9.26
2017-11-07T04:17:35.554Z,9.32
2017-11-07T04:18:16.096Z,9.23
2017-11-07T04:18:56.608Z,9.32
2017-11-07T04:19:37.154Z,9.39
2017-11-07T04:20:17.737Z,9.31
2017-11-07T04:20:58.284Z,9.29
2017-11-07T04:21:38.840Z,9.26
2017-11-07T04:22:19.410Z,9.28
2017-11-07T04:22:59.983Z,9.4
2017-11-07T04:23:40.537Z,9.39
2017-11-07T04:24:21.077Z,9.4
2017-11-07T04:25:01.637Z,9.46
2017-11-07T04:25:42.185Z,9.4
2017-11-07T04:26:22.735Z,9.32
2017-11-07T04:27:03.300Z,9.31
2017-11-07T04:27:43.851Z,9.36
2017-11-07T04:28:24.400Z,9.35
2017-11-07T04:29:04.946Z,9.33
2017-11-07T04:29:45.501Z,9.4
2017-11-07T04:30:26.056Z,9.39
2017-11-07T04:31:06.595Z,9.43
2017-11-07T04:31:47.180Z,9.54
2017-11-07T04:32:27.737Z,9.47
2017-11-07T04:33:08.271Z,9.5
2017-11-07T04:33:48.823Z,9.54
2017-11-07T04:34:29.380Z,9.35
2017-11-07T04:35:09.954Z,9.39
2017-11-07T04:35:50.508Z,9.39
2017-11-07T04:36:31.070Z,9.42
2017-11-07T04:37:11.623Z,9.4
2017-11-07T04:37:52.179Z,9.38
2017-11-07T04:38:32.737Z,9.38
2017-11-07T04:39:13.297Z,9.43
2017-11-07T04:39:53.849Z,9.35
2017-11-07T04:40:34.405Z,9.46
2017-11-07T04:41:14.965Z,9.42
2017-11-07T04:41:55.512Z,9.35
2017-11-07T04:42:36.072Z,9.5
2017-11-07T04:43:16.640Z,9.39
2017-11-07T04:43:57.197Z,9.53
2017-11-07T04:44:37.755Z,9.38
2017-11-07T04:45:18.332Z,9.35
2017-11-07T04:45:58.884Z,9.36
2017-11-07T04:46:39.433Z,9.33
2017-11-07T04:47:19.988Z,9.31
2017-11-07T04:48:00.538Z,9.28
2017-11-07T04:48:41.092Z,9.11
2017-11-07T04:49:21.650Z,9.29
2017-11-07T04:50:02.203Z,9.26
2017-11-07T04:50:42.771Z,9.11
2017-11-07T04:51:23.322Z,9.17
2017-11-07T04:52:03.885Z,9.14
2017-11-07T04:52:44.417Z,9.15
2017-11-07T04:53:24.961Z,9.13
2017-11-07T04:54:05.521Z,9.14
2017-11-07T04:54:46.065Z,9.15
2017-11-07T04:55:26.612Z,9.17
2017-11-07T04:56:07.168Z,9.26
2017-11-07T04:56:47.719Z,9.18
2017-11-07T04:57:28.270Z,9.1
2017-11-07T04:58:08.845Z,9.29
2017-11-07T04:58:49.400Z,9.24
2017-11-07T04:59:29.961Z,9.35
2017-11-07T05:00:10.526Z,9.36
2017-11-07T05:00:51.092Z,9.28
2017-11-07T05:01:31.678Z,9.29
2017-11-07T05:02:12.316Z,9.38
2017-11-07T05:02:52.871Z,9.42
2017-11-07T05:03:33.485Z,9.33
2017-11-07T05:04:14.050Z,9.26
2017-11-07T05:04:54.608Z,9.29
2017-11-07T05:05:35.178Z,9.24
2017-11-07T05:06:15.731Z,9.21
2017-11-07T05:06:56.280Z,9.18
2017-11-07T05:07:36.838Z,9.11
2017-11-07T05:08:17.473Z,9.2
2017-11-07T05:08:58.040Z,9.26
2017-11-07T05:09:38.585Z,9.28
2017-11-07T05:10:19.151Z,9.28
2017-11-07T05:10:59.688Z,9.31
2017-11-07T05:11:40.251Z,9.35
2017-11-07T05:12:20.804Z,9.21
2017-11-07T05:13:01.354Z,9.11
2017-11-07T05:13:41.935Z,9.13
2017-11-07T05:14:22.513Z,9.08
2017-11-07T05:15:03.081Z,8.98
2017-11-07T05:15:43.634Z,9.11
2017-11-07T05:16:24.196Z,9.15
2017-11-07T05:17:04.733Z,9.15
2017-11-07T05:17:45.281Z,9.18
2017-11-07T05:18:25.845Z,9.11
2017-11-07T05:19:06.425Z,9.11
2017-11-07T05:19:46.955Z,9.23
2017-11-07T05:20:27.487Z,9.1
2017-11-07T05:21:08.061Z,9.04
2017-11-07T05:21:48.617Z,9.17
2017-11-07T05:22:29.168Z,9.08
2017-11-07T05:23:09.745Z,8.94
2017-11-07T05:23:50.292Z,8.95
2017-11-07T05:24:30.834Z,8.89
2017-11-07T05:25:11.401Z,8.94
2017-11-07T05:25:51.964Z,9.04
2017-11-07T05:26:32.510Z,9.14
2017-11-07T05:27:13.067Z,9.1
2017-11-07T05:27:53.612Z,9.1
2017-11-07T05:28:34.180Z,8.99
2017-11-07T05:29:14.719Z,9.02
2017-11-07T05:29:55.270Z,9.11
2017-11-07T05:30:35.800Z,9.08
2017-11-07T05:31:16.357Z,9.04
2017-11-07T05:31:56.913Z,9.1
2017-11-07T05:32:37.445Z,9.18
2017-11-07T05:33:17.999Z,9.11
2017-11-07T05:33:58.596Z,9.08
2017-11-07T05:34:39.149Z,9.21
2017-11-07T05:35:19.698Z,9.26
2017-11-07T05:36:00.271Z,9.31
2017-11-07T05:36:40.836Z,9.28
2017-11-07T05:37:21.403Z,9.31
2017-11-07T05:38:01.955Z,9.14
2017-11-07T05:38:42.515Z,9.1
2017-11-07T05:39:23.056Z,9.13
2017-11-07T05:40:03.625Z,9.18
2017-11-07T05:40:44.174Z,9.13
2017-11-07T05:41:24.724Z,9.08
2017-11-07T05:42:05.274Z,9.1
2017-11-07T05:42:45.819Z,9.02
2017-11-07T05:43:26.359Z,9.08
2017-11-07T05:44:06.939Z,9.05
2017-11-07T05:44:47.513Z,9.1
2017-11-07T05:45:28.088Z,9.17
2017-11-07T05:46:08.590Z,9.28
2017-11-07T05:46:49.121Z,9.17
2017-11-07T05:47:29.679Z,9.1
2017-11-07T05:48:10.295Z,9.11
2017-11-07T05:48:50.859Z,9.13
2017-11-07T05:49:31.432Z,9.14
2017-11-07T05:50:11.992Z,9.04
2017-11-07T05:50:52.527Z,9.02
2017-11-07T05:51:33.073Z,8.95
2017-11-07T05:52:13.596Z,8.94
2017-11-07T05:52:54.161Z,8.91
2017-11-07T05:53:34.692Z,8.89
2017-11-07T05:54:15.223Z,8.95
2017-11-07T05:54:55.768Z,8.94
2017-11-07T05:55:36.277Z,8.77
2017-11-07T05:56:16.847Z,8.84
2017-11-07T05:56:57.389Z,8.81
2017-11-07T05:57:37.949Z,8.79
2017-11-07T05:58:18.493Z,8.91
2017-11-07T05:58:59.064Z,8.92
2017-11-07T05:59:39.615Z,8.92
2017-11-07T06:00:20.164Z,8.79
2017-11-07T06:01:00.737Z,8.81
2017-11-07T06:01:41.300Z,8.86
2017-11-07T06:02:21.861Z,8.86
2017-11-07T06:03:02.382Z,8.83
2017-11-07T06:03:42.962Z,8.87
2017-11-07T06:04:23.521Z,8.98
2017-11-07T06:05:04.070Z,8.84
2017-11-07T06:05:44.715Z,8.84
2017-11-07T06:06:25.265Z,8.91
2017-11-07T06:07:05.816Z,8.95
2017-11-07T06:07:46.355Z,8.81
2017-11-07T06:08:26.905Z,8.92
2017-11-07T06:09:07.451Z,8.91
2017-11-07T06:09:47.999Z,9.02
2017-11-07T06:10:28.559Z,8.99
2017-11-07T06:11:09.100Z,9.15
2017-11-07T06:11:49.672Z,9.1
2017-11-07T06:12:30.233Z,9.21
2017-11-07T06:13:10.790Z,9.13
2017-11-07T06:13:51.340Z,9.24
2017-11-07T06:14:31.878Z,9.28
2017-11-07T06:15:12.442Z,9.31
2017-11-07T06:15:52.999Z,9.28
2017-11-07T06:16:33.542Z,9.29
2017-11-07T06:17:14.108Z,9.29
2017-11-07T06:17:54.653Z,9.18
2017-11-07T06:18:35.191Z,9.18
2017-11-07T06:19:15.738Z,9.23
2017-11-07T06:19:56.353Z,9.29
2017-11-07T06:20:36.918Z,9.26
2017-11-07T06:21:17.512Z,9.1
2017-11-07T06:21:58.058Z,9.04
2017-11-07T06:22:38.633Z,8.98
2017-11-07T06:23:19.225Z,9.02
2017-11-07T06:23:59.738Z,9.02
2017-11-07T06:24:40.313Z,9.08
2017-11-07T06:25:20.863Z,9.04
2017-11-07T06:26:01.385Z,9.13
2017-11-07T06:26:41.920Z,9.05
2017-11-07T06:27:22.465Z,9.01
2017-11-07T06:28:03.084Z,9.04
2017-11-07T06:28:43.640Z,9.15
2017-11-07T06:29:24.210Z,9.15
2017-11-07T06:30:04.776Z,9.31
2017-11-07T06:30:45.324Z,9.29
2017-11-07T06:31:25.861Z,9.31
2017-11-07T06:32:06.384Z,9.29
2017-11-07T06:32:46.990Z,9.38
2017-11-07T06:33:27.684Z,9.39
2017-11-07T06:34:08.246Z,9.39
2017-11-07T06:34:48.749Z,9.43
2017-11-07T06:35:29.311Z,9.35
2017-11-07T06:36:09.875Z,9.39
2017-11-07T06:36:50.390Z,9.28
2017-11-07T06:37:30.966Z,9.36
2017-11-07T06:38:11.511Z,9.36
2017-11-07T06:38:52.064Z,9.47
2017-11-07T06:39:32.549Z,9.56
2017-11-07T06:40:13.100Z,9.48
2017-11-07T06:40:53.644Z,9.36
2017-11-07T06:41:34.157Z,9.33
2017-11-07T06:42:14.717Z,9.29
2017-11-07T06:42:55.237Z,9.28
2017-11-07T06:43:35.771Z,9.39
2017-11-07T06:44:16.301Z,9.42
2017-11-07T06:44:56.840Z,9.42
2017-11-07T06:45:37.433Z,9.35
2017-11-07T06:46:17.894Z,9.23
2017-11-07T06:46:58.461Z,9.26
2017-11-07T06:47:38.981Z,9.31
2017-11-07T06:48:19.532Z,9.33
2017-11-07T06:49:00.055Z,9.32
2017-11-07T06:49:40.641Z,9.35
2017-11-07T06:50:21.205Z,9.33
2017-11-07T06:51:01.782Z,9.29
2017-11-07T06:51:42.334Z,9.26
2017-11-07T06:52:22.896Z,9.36
2017-11-07T06:53:03.452Z,9.47
2017-11-07T06:53:44.025Z,9.33
2017-11-07T06:54:24.565Z,9.43
2017-11-07T06:55:05.131Z,9.39
2017-11-07T06:55:45.747Z,9.42
2017-11-07T06:56:26.318Z,9.54
2017-11-07T06:57:06.910Z,9.54
2017-11-07T06:57:47.482Z,9.54
2017-11-07T06:58:28.011Z,9.47
2017-11-07T06:59:08.586Z,9.26
2017-11-07T06:59:49.135Z,9.28
2017-11-07T07:00:29.677Z,9.21
2017-11-07T07:01:10.225Z,9.36
2017-11-07T07:01:50.776Z,9.38
2017-11-07T07:02:31.331Z,9.36
2017-11-07T07:03:11.866Z,9.43
2017-11-07T07:03:52.413Z,9.48
2017-11-07T07:04:32.972Z,9.53
2017-11-07T07:05:13.554Z,9.39
2017-11-07T07:05:54.090Z,9.38
2017-11-07T07:06:34.625Z,9.24
2017-11-07T07:07:15.165Z,9.29
2017-11-07T07:07:55.860Z,9.31
2017-11-07T07:08:36.387Z,9.23
2017-11-07T07:09:16.921Z,9.23
2017-11-07T07:09:57.480Z,9.28
2017-11-07T07:10:37.990Z,9.24
2017-11-07T07:11:18.547Z,9.29
2017-11-07T07:11:59.066Z,9.29
2017-11-07T07:12:39.619Z,9.21
2017-11-07T07:13:20.154Z,9.24
2017-11-07T07:14:00.688Z,9.43
2017-11-07T07:14:41.271Z,9.46
2017-11-07T07:15:21.841Z,9.96
2017-11-07T07:16:02.354Z,10.18
2017-11-07T07:16:42.883Z,9.93
2017-11-07T07:17:23.456Z,10.26
2017-11-07T07:18:03.992Z,10.66
2017-11-07T07:18:44.515Z,10.86
2017-11-07T07:19:25.073Z,10.91
2017-11-07T07:20:05.620Z,10.59
2017-11-07T07:20:46.163Z,10.7
2017-11-07T07:21:26.723Z,11.17
2017-11-07T07:22:07.284Z,10.85
2017-11-07T07:22:47.836Z,10.47
2017-11-07T07:23:28.374Z,10.18
2017-11-07T07:24:08.942Z,10.07
2017-11-07T07:24:49.483Z,9.91
2017-11-07T07:25:30.038Z,9.71
2017-11-07T07:26:10.584Z,9.64
2017-11-07T07:26:51.136Z,9.68
2017-11-07T07:27:31.685Z,9.74
2017-11-07T07:28:12.274Z,10.01
2017-11-07T07:28:52.836Z,10.94
2017-11-07T07:29:33.377Z,11.32
2017-11-07T07:30:13.926Z,11.54
2017-11-07T07:30:54.517Z,11.54
2017-11-07T07:31:35.076Z,11.65
2017-11-07T07:32:15.670Z,11.46
2017-11-07T07:32:56.178Z,11.6
2017-11-07T07:33:36.762Z,11.57
2017-11-07T07:34:17.313Z,11.52
2017-11-07T07:34:57.853Z,11.51
2017-11-07T07:35:38.415Z,11.02
2017-11-07T07:36:18.959Z,10.63
2017-11-07T07:36:59.505Z,10.18
2017-11-07T07:37:40.064Z,9.83
2017-11-07T07:38:20.602Z,9.76
2017-11-07T07:39:01.136Z,9.79
2017-11-07T07:39:41.691Z,9.79
2017-11-07T07:40:22.264Z,10.09
2017-11-07T07:41:02.844Z,10.32
2017-11-07T07:41:43.410Z,10.11
2017-11-07T07:42:23.947Z,10.32
2017-11-07T07:43:04.485Z,10.82
2017-11-07T07:43:45.018Z,10.84
2017-11-07T07:44:25.592Z,10.81
2017-11-07T07:45:06.193Z,11.02
2017-11-07T07:45:46.743Z,10.96
2017-11-07T07:46:27.405Z,10.79
2017-11-07T07:47:07.974Z,10.47
2017-11-07T07:47:48.504Z,10.18
2017-11-07T07:48:29.098Z,9.96
2017-11-07T07:49:09.649Z,9.97
2017-11-07T07:49:50.194Z,10.02
2017-11-07T07:50:30.781Z,10.17
2017-11-07T07:51:11.328Z,10.07
2017-11-07T07:51:51.887Z,10.12
2017-11-07T07:52:32.510Z,10.27
2017-11-07T07:53:13.088Z,10.3
2017-11-07T07:53:53.609Z,10.47
2017-11-07T07:54:34.160Z,10.34
2017-11-07T07:55:14.726Z,10.4
2017-11-07T07:55:55.310Z,10.42
2017-11-07T07:56:35.855Z,10.51
2017-11-07T07:57:16.458Z,10.48
2017-11-07T07:57:56.939Z,10.67
2017-11-07T07:58:37.515Z,10.53
2017-11-07T07:59:18.049Z,10.4
2017-11-07T07:59:58.585Z,10.36
2017-11-07T08:00:39.118Z,10.51
2017-11-07T08:01:19.679Z,10.52
2017-11-07T08:02:00.173Z,10.53
2017-11-07T08:02:40.747Z,10.36
2017-11-07T08:03:21.293Z,10.07
2017-11-07T08:04:01.927Z,10.11
2017-11-07T08:04:42.474Z,10.2
2017-11-07T08:05:23.021Z,10.22
2017-11-07T08:06:03.527Z,10.23
2017-11-07T08:06:44.104Z,10.3
2017-11-07T08:07:24.656Z,10.34
2017-11-07T08:08:05.154Z,10.4
2017-11-07T08:08:45.689Z,10.4
2017-11-07T08:09:26.317Z,10.38
2017-11-07T08:10:06.835Z,10.44
2017-11-07T08:10:47.401Z,10.36
2017-11-07T08:11:27.936Z,10.61
2017-11-07T08:12:08.482Z,10.85
2017-11-07T08:12:49.017Z,11.09
2017-11-07T08:13:29.515Z,10.78
2017-11-07T08:14:10.141Z,10.61
2017-11-07T08:14:50.694Z,10.53
2017-11-07T08:15:31.288Z,10.84
2017-11-07T08:16:11.801Z,10.85
2017-11-07T08:16:52.330Z,10.74
2017-11-07T08:17:32.881Z,10.67
2017-11-07T08:18:13.419Z,10.6
2017-11-07T08:18:53.990Z,10.61
2017-11-07T08:19:34.520Z,10.66
2017-11-07T08:20:15.051Z,10.59
2017-11-07T08:20:55.599Z,10.76
2017-11-07T08:21:36.124Z,10.66
2017-11-07T08:22:16.669Z,10.61
2017-11-07T08:22:57.196Z,10.94
2017-11-07T08:23:37.747Z,11.27
2017-11-07T08:24:18.262Z,11.43
2017-11-07T08:24:58.751Z,11.78
2017-11-07T08:25:39.308Z,11.6
2017-11-07T08:26:19.850Z,11.54
2017-11-07T08:27:00.380Z,11.19
2017-11-07T08:27:40.929Z,11.35
2017-11-07T08:28:21.485Z,11.61
2017-11-07T08:29:02.034Z,11.61
2017-11-07T08:29:42.546Z,11.55
2017-11-07T08:30:23.130Z,11.57
2017-11-07T08:31:03.698Z,11.24
2017-11-07T08:31:44.212Z,10.82
2017-11-07T08:32:24.765Z,10.78
2017-11-07T08:33:05.336Z,10.82
2017-11-07T08:33:45.916Z,10.71
2017-11-07T08:34:26.460Z,10.74
2017-11-07T08:35:07.003Z,10.7
2017-11-07T08:35:47.542Z,10.78
2017-11-07T08:36:28.101Z,10.79
2017-11-07T08:37:08.642Z,10.79
2017-11-07T08:37:49.168Z,10.84
2017-11-07T08:38:29.738Z,10.84
2017-11-07T08:39:10.267Z,10.91
2017-11-07T08:39:50.866Z,11.04
2017-11-07T08:40:31.377Z,11.03
2017-11-07T08:41:12.424Z,11.28
2017-11-07T08:41:53.328Z,11.4
2017-11-07T08:42:33.887Z,11.18
2017-11-07T08:43:14.422Z,11.22
2017-11-07T08:43:55.005Z,11.18
2017-11-07T08:44:35.576Z,10.92
2017-11-07T08:45:16.097Z,10.88
2017-11-07T08:45:56.686Z,11
2017-11-07T08:46:37.280Z,10.94
2017-11-07T08:47:17.840Z,10.89
2017-11-07T08:47:58.382Z,10.92
2017-11-07T08:48:38.938Z,10.92
2017-11-07T08:49:19.500Z,10.79
2017-11-07T08:50:00.048Z,10.94
2017-11-07T08:50:40.644Z,10.96
2017-11-07T08:51:21.184Z,10.82
2017-11-07T08:52:01.808Z,10.86
2017-11-07T08:52:42.284Z,10.97
2017-11-07T08:53:22.816Z,11
2017-11-07T08:54:03.366Z,11.14
2017-11-07T08:54:43.932Z,10.86
2017-11-07T08:55:24.484Z,10.84
2017-11-07T08:56:05.044Z,10.78
2017-11-07T08:56:45.626Z,10.76
2017-11-07T08:57:26.205Z,10.78
2017-11-07T08:58:06.758Z,10.81